createdAt,value
2022-11-14T00:01:18.245Z,100043.13
2022-11-14T00:04:51.480Z,100046.47
2022-11-14T00:08:28.414Z,100040.48
2022-11-14T00:17:59.551Z,100041.86
2022-11-14T00:40:00.823Z,100029.36
2022-11-14T00:43:31.358Z,100026.43
2022-11-14T00:53:01.712Z,100013.44
2022-11-14T00:56:28.615Z,100026.09
2022-11-14T00:59:59.601Z,100027.20
2022-11-14T01:03:29.762Z,100021.10
2022-11-14T01:06:59.903Z,100023.97
2022-11-14T01:10:30.795Z,100021.92
2022-11-14T01:14:01.049Z,100015.98
2022-11-14T01:17:32.222Z,100016.27
2022-11-14T01:21:02.532Z,100013.73
2022-11-14T01:24:33.823Z,100008.78
2022-11-14T01:28:04.525Z,100015.48
2022-11-14T01:31:35.177Z,100017.02
2022-11-14T01:35:07.970Z,100003.52
2022-11-14T01:38:38.461Z,100008.64
2022-11-14T01:42:09.146Z,99997.83
2022-11-14T01:46:02.404Z,99991.78
2022-11-14T01:55:36.289Z,99990.19
2022-11-14T02:05:11.071Z,99994.25
2022-11-14T02:08:42.711Z,99992.53
2022-11-14T02:12:17.899Z,99981.84
2022-11-14T02:18:48.320Z,99977.28
2022-11-14T02:22:20.353Z,99975.80
2022-11-14T02:25:50.539Z,99969.77
2022-11-14T02:29:21.111Z,99967.13
2022-11-14T02:33:09.893Z,99962.53
2022-11-14T02:36:25.184Z,99971.36
2022-11-14T02:39:55.554Z,99959.13
2022-11-14T02:43:25.706Z,99960.23
2022-11-14T02:46:56.096Z,99954.96
2022-11-14T02:50:30.981Z,99965.27
2022-11-14T02:54:02.445Z,99955.05
2022-11-14T02:57:33.043Z,99950.79
2022-11-14T03:01:20.361Z,99958.45
2022-11-14T03:04:40.050Z,99948.92
2022-11-14T03:08:10.881Z,99955.55
2022-11-14T03:11:41.783Z,99951.75
2022-11-14T03:15:15.035Z,99942.89
2022-11-14T03:18:46.924Z,99949.11
2022-11-14T03:25:23.041Z,99937.04
2022-11-14T03:28:56.499Z,99943.66
2022-11-14T03:32:27.551Z,99940.11
2022-11-14T03:35:59.362Z,99942.74
2022-11-14T03:39:30.094Z,99942.31
2022-11-14T03:43:00.153Z,99941.55
2022-11-14T03:46:23.309Z,99942.98
2022-11-14T03:49:54.048Z,99941.60
2022-11-14T03:53:24.459Z,99951.13
2022-11-14T03:56:54.779Z,99949.70
2022-11-14T04:00:27.685Z,99941.79
2022-11-14T04:03:58.470Z,99934.65
2022-11-14T04:07:28.854Z,99920.55
2022-11-14T04:17:53.674Z,99912.22
2022-11-14T04:21:24.511Z,99898.95
2022-11-14T04:24:54.554Z,99917.88
2022-11-14T04:28:24.963Z,99917.30
2022-11-14T05:03:22.670Z,99904.37
2022-11-14T05:06:52.860Z,99901.58
2022-11-14T05:10:24.035Z,99897.56
2022-11-14T05:13:55.346Z,99891.42
2022-11-14T05:17:22.948Z,99897.88
2022-11-14T05:20:53.271Z,99896.02
2022-11-14T05:24:23.701Z,99893.80
2022-11-14T05:27:54.275Z,99890.72
2022-11-14T05:31:24.509Z,99887.50
2022-11-14T05:34:55.261Z,99893.45
2022-11-14T05:44:25.771Z,99888.34
2022-11-14T07:08:06.532Z,99874.36
2022-11-14T07:20:37.265Z,99841.70
2022-11-14T07:24:08.008Z,99861.58
2022-11-14T07:27:38.562Z,99881.16
2022-11-14T07:31:12.435Z,99883.84
2022-11-14T07:34:42.767Z,99889.45
2022-11-14T07:38:13.323Z,99896.52
2022-11-14T07:41:43.664Z,99894.33
2022-11-14T07:45:16.519Z,99893.80
2022-11-14T07:48:48.105Z,99892.08
2022-11-14T07:52:18.545Z,99892.08
2022-11-14T07:55:49.555Z,99890.98
2022-11-14T07:59:20.165Z,99892.08
2022-11-14T08:02:52.403Z,99888.88
2022-11-14T08:06:24.122Z,99891.52
2022-11-14T08:09:54.813Z,99885.48
2022-11-14T08:13:32.115Z,99878.67
2022-11-14T08:16:57.766Z,99873.94
2022-11-14T08:20:28.625Z,99862.45
2022-11-14T08:23:58.616Z,99854.16
2022-11-14T08:27:29.333Z,99851.86
2022-11-14T08:31:05.683Z,99853.11
2022-11-14T08:34:37.415Z,99856.41
2022-11-14T08:38:08.367Z,99834.52
2022-11-14T08:41:38.865Z,99844.88
2022-11-14T08:45:10.619Z,99833.41
2022-11-14T08:48:41.249Z,99833.41
2022-11-14T08:52:16.510Z,99847.78
2022-11-14T08:55:49.158Z,99838.41
2022-11-14T08:59:19.592Z,99835.86
2022-11-14T09:02:49.931Z,99837.58
2022-11-14T09:06:20.497Z,99835.19
2022-11-14T09:09:51.076Z,99835.00
2022-11-14T09:13:22.353Z,99835.95
2022-11-14T09:16:54.595Z,99838.42
2022-11-14T09:20:31.065Z,99838.34
2022-11-14T09:24:01.676Z,99836.28
2022-11-14T09:27:32.860Z,99837.72
2022-11-14T09:31:10.285Z,99835.18
2022-11-14T09:34:42.606Z,99821.42
2022-11-14T09:38:15.313Z,99831.63
2022-11-14T09:41:58.798Z,99823.97
2022-11-14T09:45:29.651Z,99817.69
2022-11-14T09:49:02.465Z,99820.03
2022-11-14T09:52:43.272Z,99814.52
2022-11-14T09:56:19.101Z,99816.16
2022-11-14T09:59:49.643Z,99794.38
2022-11-14T10:03:26.098Z,99806.03
2022-11-14T10:07:04.290Z,99801.36
2022-11-14T10:10:50.117Z,99795.08
2022-11-14T10:15:08.955Z,99802.54
2022-11-14T10:18:58.751Z,99806.63
2022-11-14T10:22:45.497Z,99802.98
2022-11-14T10:26:24.603Z,99790.98
2022-11-14T10:30:16.387Z,99784.34
2022-11-14T10:47:50.871Z,99760.22
2022-11-14T10:51:28.916Z,99757.29
2022-11-14T10:55:06.482Z,99761.04
2022-11-14T10:58:47.755Z,99757.48
2022-11-14T11:02:09.175Z,99749.17
2022-11-14T11:05:45.807Z,99753.42
2022-11-14T11:09:51.041Z,99755.83
2022-11-14T11:13:36.788Z,99751.77
2022-11-14T11:17:33.310Z,99750.23
2022-11-14T11:21:14.412Z,99733.74
2022-11-14T11:24:45.454Z,99735.94
2022-11-14T11:28:20.871Z,99738.98
2022-11-14T11:32:00.260Z,99728.95
2022-11-14T11:35:30.784Z,99736.28
2022-11-14T11:39:02.920Z,99734.83
2022-11-14T11:46:21.359Z,99727.03
2022-11-14T11:49:54.956Z,99717.70
2022-11-14T11:53:30.902Z,99713.60
2022-11-14T11:57:06.099Z,99708.17
2022-11-14T12:00:37.374Z,99707.47
2022-11-14T12:04:08.300Z,99714.00
2022-11-14T12:07:47.794Z,99713.95
2022-11-14T12:11:23.100Z,99710.20
2022-11-14T12:15:15.150Z,99706.50
2022-11-14T12:19:25.061Z,99704.13
2022-11-14T12:23:11.085Z,99701.38
2022-11-14T12:27:11.104Z,99696.93
2022-11-14T12:30:45.850Z,99685.20
2022-11-14T12:34:26.737Z,99686.89
2022-11-14T12:37:59.658Z,99682.17
2022-11-14T12:41:35.149Z,99678.28
2022-11-14T12:45:05.431Z,99665.86
2022-11-14T12:48:43.012Z,99667.47
2022-11-14T12:52:38.068Z,99657.38
2022-11-14T12:56:21.312Z,99657.85
2022-11-14T13:00:07.414Z,99660.22
2022-11-14T13:03:56.674Z,99648.72
2022-11-14T13:07:42.948Z,99638.38
2022-11-14T13:12:13.580Z,99647.22
2022-11-14T13:16:10.218Z,99636.13
2022-11-14T13:19:57.415Z,99638.18
2022-11-14T13:24:04.780Z,99642.33
2022-11-14T13:28:06.020Z,99640.27
2022-11-14T13:31:27.485Z,99628.59
2022-11-14T13:35:03.375Z,99623.59
2022-11-14T13:39:26.468Z,99628.77
2022-11-14T13:43:03.644Z,99617.08
2022-11-14T13:46:48.065Z,99616.23
2022-11-14T13:50:22.907Z,99618.59
2022-11-14T13:53:53.596Z,99617.55
2022-11-14T13:57:34.643Z,99605.60
2022-11-14T14:01:16.207Z,99608.52
2022-11-14T14:04:58.442Z,99600.61
2022-11-14T14:08:45.119Z,99597.59
2022-11-14T14:12:38.985Z,99592.41
2022-11-14T14:16:16.575Z,99589.56
2022-11-14T14:19:59.335Z,99585.64
2022-11-14T14:23:41.509Z,99579.40
2022-11-14T14:27:18.478Z,99589.03
2022-11-14T14:31:04.098Z,99580.91
2022-11-14T14:34:37.381Z,99581.86
2022-11-14T14:38:09.536Z,99564.97
2022-11-14T14:41:40.886Z,99564.22
2022-11-14T14:45:18.514Z,99563.08
2022-11-14T14:48:49.098Z,99561.69
2022-11-14T14:52:36.031Z,99559.70
2022-11-14T14:56:11.437Z,99563.94
2022-11-14T14:59:42.448Z,99559.05
2022-11-14T15:03:16.263Z,99552.09
2022-11-14T15:06:51.445Z,99547.20
2022-11-14T15:10:33.854Z,99545.70
2022-11-14T15:14:06.648Z,99550.13
2022-11-14T15:17:37.308Z,99546.95
2022-11-14T15:21:32.394Z,99539.58
2022-11-14T15:25:25.568Z,99541.72
2022-11-14T15:28:56.002Z,99541.08
2022-11-14T15:32:29.693Z,99539.19
2022-11-14T15:36:13.871Z,99542.86
2022-11-14T15:39:45.411Z,99549.09
2022-11-14T15:43:50.603Z,99544.84
2022-11-14T15:47:28.132Z,99541.94
2022-11-14T15:50:59.442Z,99536.09
2022-11-14T15:54:37.682Z,99541.46
2022-11-14T15:58:27.040Z,99540.43
2022-11-14T16:01:41.579Z,99537.05
2022-11-14T16:05:18.157Z,99542.96
2022-11-14T16:08:48.780Z,99544.00
2022-11-14T16:12:19.468Z,99540.43
2022-11-14T16:15:50.116Z,99537.59
2022-11-14T16:19:22.866Z,99537.69
2022-11-14T16:22:56.662Z,99538.72
2022-11-14T16:26:27.369Z,99535.16
2022-11-14T16:29:57.659Z,99542.49
2022-11-14T16:33:28.531Z,99538.83
2022-11-14T16:37:07.186Z,99541.25
2022-11-14T16:40:37.591Z,99543.61
2022-11-14T16:44:08.189Z,99534.84
2022-11-14T16:47:38.814Z,99536.84
2022-11-14T16:51:40.927Z,99539.58
2022-11-14T16:54:43.041Z,99534.30
2022-11-14T16:58:14.676Z,99530.70
2022-11-14T17:01:46.119Z,99529.78
2022-11-14T17:05:17.378Z,99528.81
2022-11-14T17:08:48.109Z,99525.90
2022-11-14T17:12:18.693Z,99522.33
2022-11-14T17:15:49.501Z,99526.28
2022-11-14T17:19:19.742Z,99521.22
2022-11-14T17:22:49.928Z,99510.56
2022-11-14T17:26:21.406Z,99514.45
2022-11-14T17:29:51.847Z,99519.13
2022-11-14T17:33:21.959Z,99514.81
2022-11-14T17:36:52.550Z,99515.09
2022-11-14T17:40:23.673Z,99513.09
2022-11-14T17:44:00.211Z,99510.67
2022-11-14T17:47:31.271Z,99509.53
2022-11-14T17:51:03.667Z,99502.45
2022-11-14T17:54:35.746Z,99499.16
2022-11-14T17:58:06.364Z,99504.55
2022-11-14T18:01:36.699Z,99497.98
2022-11-14T18:05:07.240Z,99492.70
2022-11-14T18:08:37.365Z,99494.85
2022-11-14T18:12:07.495Z,99493.14
2022-11-14T18:15:38.603Z,99484.09
2022-11-14T18:19:08.971Z,99478.70
2022-11-14T18:22:39.105Z,99476.92
2022-11-14T18:26:19.514Z,99479.28
2022-11-14T18:29:50.302Z,99475.14
2022-11-14T18:33:20.842Z,99476.92
2022-11-14T18:36:51.700Z,99474.29
2022-11-14T18:40:23.079Z,99471.86
2022-11-14T18:43:55.576Z,99459.42
2022-11-14T18:47:26.273Z,99460.17
2022-11-14T18:50:56.154Z,99466.66
2022-11-14T18:54:26.721Z,99460.00
2022-11-14T18:57:57.193Z,99452.59
2022-11-14T19:01:32.107Z,99457.67
2022-11-14T19:05:02.893Z,99455.11
2022-11-14T19:08:32.969Z,99456.82
2022-11-14T19:12:17.736Z,99445.63
2022-11-14T19:15:48.593Z,99445.66
2022-11-14T19:19:19.353Z,99449.87
2022-11-14T19:22:49.425Z,99441.14
2022-11-14T19:26:20.082Z,99438.40
2022-11-14T19:29:50.874Z,99438.50
2022-11-14T19:33:21.084Z,99437.75
2022-11-14T19:37:00.335Z,99437.90
2022-11-14T19:40:26.341Z,99434.90
2022-11-14T19:43:56.858Z,99441.13
2022-11-14T19:47:27.123Z,99442.53
2022-11-14T19:51:07.350Z,99438.00
2022-11-14T19:54:38.016Z,99431.72
2022-11-14T19:58:08.435Z,99423.19
2022-11-14T20:01:42.163Z,99427.86
2022-11-14T20:05:15.316Z,99424.30
2022-11-14T20:08:45.861Z,99427.86
2022-11-14T20:12:16.369Z,99431.36
2022-11-14T20:15:46.936Z,99421.85
2022-11-14T20:19:18.208Z,99416.80
2022-11-14T20:22:48.653Z,99413.03
2022-11-14T20:26:20.718Z,99412.28
2022-11-14T20:29:51.079Z,99404.28
2022-11-14T20:33:21.694Z,99403.80
2022-11-14T20:40:24.971Z,99388.00
2022-11-14T20:43:57.609Z,99395.08
2022-11-14T20:47:28.539Z,99387.63
2022-11-14T20:51:01.383Z,99385.20
2022-11-14T20:54:31.848Z,99389.71
2022-11-14T20:58:02.500Z,99386.12
2022-11-14T21:01:33.345Z,99385.56
2022-11-14T21:05:03.889Z,99375.41
2022-11-14T21:08:34.863Z,99371.55
2022-11-14T21:12:05.350Z,99367.02
2022-11-14T21:15:36.632Z,99366.17
2022-11-14T21:19:08.319Z,99359.41
2022-11-14T21:22:38.394Z,99361.11
2022-11-14T21:26:17.291Z,99355.20
2022-11-14T21:29:47.679Z,99342.31
2022-11-14T21:33:17.781Z,99355.09
2022-11-14T21:36:48.573Z,99365.91
2022-11-14T21:40:20.607Z,99352.09
2022-11-14T21:43:53.366Z,99356.78
2022-11-14T21:47:23.707Z,99351.52
2022-11-14T21:50:54.411Z,99345.70
2022-11-14T21:54:24.701Z,99354.73
2022-11-14T21:57:59.166Z,99334.04
2022-11-14T22:01:40.707Z,99346.29
2022-11-14T22:05:12.228Z,99341.84
2022-11-14T22:08:42.572Z,99335.38
2022-11-14T22:12:13.319Z,99340.72
2022-11-14T22:15:44.252Z,99338.56
2022-11-14T22:19:14.604Z,99336.68
2022-11-14T22:22:45.024Z,99334.05
2022-11-14T22:26:16.841Z,99334.80
2022-11-14T22:29:46.965Z,99332.92
2022-11-14T22:33:17.495Z,99325.77
2022-11-14T22:36:48.188Z,99333.50
2022-11-14T22:40:20.700Z,99332.38
2022-11-14T22:43:51.526Z,99319.02
2022-11-14T22:47:21.740Z,99326.73
2022-11-14T22:50:52.269Z,99324.48
2022-11-14T22:54:23.380Z,99322.67
2022-11-14T22:57:54.051Z,99320.34
2022-11-14T23:01:28.146Z,99316.48
2022-11-14T23:04:58.436Z,99313.57
2022-11-14T23:08:28.880Z,99308.48
2022-11-14T23:11:59.503Z,99307.45
2022-11-14T23:15:29.722Z,99306.22
2022-11-14T23:19:02.841Z,99304.17
2022-11-14T23:22:33.318Z,99301.98
2022-11-14T23:26:08.049Z,99295.05
2022-11-14T23:29:38.322Z,99287.81
2022-11-14T23:33:09.160Z,99296.55
2022-11-14T23:36:40.182Z,99281.62
2022-11-14T23:40:13.609Z,99275.23
2022-11-14T23:43:44.138Z,99269.11
2022-11-14T23:47:14.501Z,99267.44
2022-11-14T23:50:44.789Z,99257.36
2022-11-14T23:54:15.424Z,99263.75
2022-11-14T23:57:45.891Z,99255.69
